sensor_id;sensor_type;location;lat;lon;timestamp;P1;durP1;ratioP1;P2;durP2;ratioP2
15082;SDS011;7640;53.116;6.878;2024-02-26T00:00:05;33.57;;;17.67;;
15082;SDS011;7640;53.116;6.878;2024-02-26T00:02:36;30.33;;;15.43;;
15082;SDS011;7640;53.116;6.878;2024-02-26T00:05:07;32.27;;;15.93;;
15082;SDS011;7640;53.116;6.878;2024-02-26T00:07:36;31.13;;;16.67;;
15082;SDS011;7640;53.116;6.878;2024-02-26T00:10:06;32.33;;;16.90;;
15082;SDS011;7640;53.116;6.878;2024-02-26T00:12:37;38.13;;;19.20;;
15082;SDS011;7640;53.116;6.878;2024-02-26T00:15:07;39.87;;;20.20;;
15082;SDS011;7640;53.116;6.878;2024-02-26T00:17:37;42.07;;;21.53;;
15082;SDS011;7640;53.116;6.878;2024-02-26T00:20:07;47.87;;;23.37;;
15082;SDS011;7640;53.116;6.878;2024-02-26T00:22:38;49.90;;;24.07;;
15082;SDS011;7640;53.116;6.878;2024-02-26T00:25:07;57.93;;;26.07;;
15082;SDS011;7640;53.116;6.878;2024-02-26T00:27:37;49.27;;;23.90;;
15082;SDS011;7640;53.116;6.878;2024-02-26T00:30:07;52.20;;;25.40;;
15082;SDS011;7640;53.116;6.878;2024-02-26T00:32:37;58.50;;;26.83;;
15082;SDS011;7640;53.116;6.878;2024-02-26T00:35:06;53.20;;;27.03;;
15082;SDS011;7640;53.116;6.878;2024-02-26T00:37:36;54.20;;;26.83;;
15082;SDS011;7640;53.116;6.878;2024-02-26T00:40:05;57.53;;;27.77;;
15082;SDS011;7640;53.116;6.878;2024-02-26T00:42:38;59.63;;;28.93;;
15082;SDS011;7640;53.116;6.878;2024-02-26T00:45:12;55.47;;;26.97;;
15082;SDS011;7640;53.116;6.878;2024-02-26T00:47:40;59.63;;;29.17;;
15082;SDS011;7640;53.116;6.878;2024-02-26T00:50:11;57.87;;;28.80;;
15082;SDS011;7640;53.116;6.878;2024-02-26T00:52:40;62.90;;;29.93;;
15082;SDS011;7640;53.116;6.878;2024-02-26T00:55:09;68.53;;;30.73;;
15082;SDS011;7640;53.116;6.878;2024-02-26T00:57:39;68.63;;;31.90;;
15082;SDS011;7640;53.116;6.878;2024-02-26T01:00:09;67.73;;;33.77;;
15082;SDS011;7640;53.116;6.878;2024-02-26T01:02:38;70.53;;;34.30;;
15082;SDS011;7640;53.116;6.878;2024-02-26T01:05:08;66.40;;;33.27;;
15082;SDS011;7640;53.116;6.878;2024-02-26T01:07:37;73.63;;;34.83;;
15082;SDS011;7640;53.116;6.878;2024-02-26T01:10:06;67.90;;;33.30;;
15082;SDS011;7640;53.116;6.878;2024-02-26T01:12:36;69.60;;;35.63;;
15082;SDS011;7640;53.116;6.878;2024-02-26T01:15:07;73.10;;;34.77;;
15082;SDS011;7640;53.116;6.878;2024-02-26T01:17:36;69.57;;;35.63;;
15082;SDS011;7640;53.116;6.878;2024-02-26T01:20:06;77.73;;;36.83;;
15082;SDS011;7640;53.116;6.878;2024-02-26T01:22:36;76.77;;;36.43;;
15082;SDS011;7640;53.116;6.878;2024-02-26T01:25:07;74.33;;;35.20;;
15082;SDS011;7640;53.116;6.878;2024-02-26T01:27:37;77.63;;;35.67;;
15082;SDS011;7640;53.116;6.878;2024-02-26T01:30:10;74.63;;;36.53;;
15082;SDS011;7640;53.116;6.878;2024-02-26T01:32:42;78.33;;;34.83;;
15082;SDS011;7640;53.116;6.878;2024-02-26T01:35:11;76.77;;;34.80;;
15082;SDS011;7640;53.116;6.878;2024-02-26T01:37:40;75.17;;;35.33;;
15082;SDS011;7640;53.116;6.878;2024-02-26T01:40:10;73.77;;;34.53;;
15082;SDS011;7640;53.116;6.878;2024-02-26T01:42:45;72.27;;;34.87;;
15082;SDS011;7640;53.116;6.878;2024-02-26T01:45:15;69.13;;;34.80;;
15082;SDS011;7640;53.116;6.878;2024-02-26T01:47:49;74.83;;;36.10;;
15082;SDS011;7640;53.116;6.878;2024-02-26T01:50:19;72.03;;;34.50;;
15082;SDS011;7640;53.116;6.878;2024-02-26T01:52:49;72.97;;;35.43;;
15082;SDS011;7640;53.116;6.878;2024-02-26T01:55:18;68.03;;;35.53;;
15082;SDS011;7640;53.116;6.878;2024-02-26T01:57:49;65.83;;;34.20;;
15082;SDS011;7640;53.116;6.878;2024-02-26T02:00:19;63.00;;;32.10;;
15082;SDS011;7640;53.116;6.878;2024-02-26T02:02:49;67.83;;;33.40;;
15082;SDS011;7640;53.116;6.878;2024-02-26T02:05:19;62.73;;;30.97;;
15082;SDS011;7640;53.116;6.878;2024-02-26T02:07:49;59.60;;;31.37;;
15082;SDS011;7640;53.116;6.878;2024-02-26T02:10:18;61.60;;;32.13;;
15082;SDS011;7640;53.116;6.878;2024-02-26T02:12:53;58.37;;;29.00;;
15082;SDS011;7640;53.116;6.878;2024-02-26T02:15:22;58.90;;;30.07;;
15082;SDS011;7640;53.116;6.878;2024-02-26T02:17:51;58.87;;;30.03;;
15082;SDS011;7640;53.116;6.878;2024-02-26T02:20:24;54.37;;;29.10;;
15082;SDS011;7640;53.116;6.878;2024-02-26T02:22:54;51.90;;;26.77;;
15082;SDS011;7640;53.116;6.878;2024-02-26T02:25:22;50.90;;;26.83;;
15082;SDS011;7640;53.116;6.878;2024-02-26T02:27:51;52.17;;;27.17;;
15082;SDS011;7640;53.116;6.878;2024-02-26T02:30:21;49.33;;;26.83;;
15082;SDS011;7640;53.116;6.878;2024-02-26T02:32:53;45.03;;;24.73;;
15082;SDS011;7640;53.116;6.878;2024-02-26T02:35:26;45.40;;;25.63;;
15082;SDS011;7640;53.116;6.878;2024-02-26T02:37:55;53.40;;;26.10;;
15082;SDS011;7640;53.116;6.878;2024-02-26T02:40:25;50.97;;;26.90;;
15082;SDS011;7640;53.116;6.878;2024-02-26T02:42:53;47.10;;;24.90;;
15082;SDS011;7640;53.116;6.878;2024-02-26T02:45:22;48.73;;;24.83;;
15082;SDS011;7640;53.116;6.878;2024-02-26T02:47:50;47.93;;;25.30;;
15082;SDS011;7640;53.116;6.878;2024-02-26T02:50:19;41.23;;;23.50;;
15082;SDS011;7640;53.116;6.878;2024-02-26T02:52:49;39.63;;;21.33;;
15082;SDS011;7640;53.116;6.878;2024-02-26T02:55:18;37.70;;;19.47;;
15082;SDS011;7640;53.116;6.878;2024-02-26T02:57:47;34.03;;;19.90;;
15082;SDS011;7640;53.116;6.878;2024-02-26T03:00:16;33.70;;;18.80;;
15082;SDS011;7640;53.116;6.878;2024-02-26T03:02:45;33.70;;;18.77;;
15082;SDS011;7640;53.116;6.878;2024-02-26T03:05:14;31.43;;;18.30;;
15082;SDS011;7640;53.116;6.878;2024-02-26T03:07:43;28.23;;;15.90;;
15082;SDS011;7640;53.116;6.878;2024-02-26T03:10:13;28.80;;;16.67;;
15082;SDS011;7640;53.116;6.878;2024-02-26T03:12:42;27.63;;;15.50;;
15082;SDS011;7640;53.116;6.878;2024-02-26T03:15:11;28.33;;;15.57;;
15082;SDS011;7640;53.116;6.878;2024-02-26T03:17:39;25.07;;;15.20;;
15082;SDS011;7640;53.116;6.878;2024-02-26T03:20:09;25.40;;;14.97;;
15082;SDS011;7640;53.116;6.878;2024-02-26T03:22:38;26.63;;;15.23;;
15082;SDS011;7640;53.116;6.878;2024-02-26T03:25:07;25.63;;;14.70;;
15082;SDS011;7640;53.116;6.878;2024-02-26T03:27:38;28.63;;;15.87;;
15082;SDS011;7640;53.116;6.878;2024-02-26T03:30:07;29.07;;;15.87;;
15082;SDS011;7640;53.116;6.878;2024-02-26T03:32:37;26.23;;;15.13;;
15082;SDS011;7640;53.116;6.878;2024-02-26T03:35:06;26.53;;;15.67;;
15082;SDS011;7640;53.116;6.878;2024-02-26T03:37:36;26.53;;;14.93;;
15082;SDS011;7640;53.116;6.878;2024-02-26T03:40:05;26.30;;;15.10;;
15082;SDS011;7640;53.116;6.878;2024-02-26T03:42:35;27.33;;;15.97;;
15082;SDS011;7640;53.116;6.878;2024-02-26T03:45:05;27.27;;;14.20;;
15082;SDS011;7640;53.116;6.878;2024-02-26T03:47:37;26.27;;;14.87;;
15082;SDS011;7640;53.116;6.878;2024-02-26T03:50:07;27.13;;;15.10;;
15082;SDS011;7640;53.116;6.878;2024-02-26T03:52:36;26.27;;;14.93;;
15082;SDS011;7640;53.116;6.878;2024-02-26T03:55:05;26.47;;;14.13;;
15082;SDS011;7640;53.116;6.878;2024-02-26T03:57:34;27.77;;;14.67;;
15082;SDS011;7640;53.116;6.878;2024-02-26T04:00:05;23.73;;;13.80;;
15082;SDS011;7640;53.116;6.878;2024-02-26T04:02:35;23.57;;;13.93;;
15082;SDS011;7640;53.116;6.878;2024-02-26T04:05:04;25.53;;;13.97;;
15082;SDS011;7640;53.116;6.878;2024-02-26T04:07:37;24.73;;;13.50;;
15082;SDS011;7640;53.116;6.878;2024-02-26T04:10:08;25.03;;;14.23;;
15082;SDS011;7640;53.116;6.878;2024-02-26T04:12:38;22.27;;;13.20;;
15082;SDS011;7640;53.116;6.878;2024-02-26T04:15:09;24.13;;;12.70;;
15082;SDS011;7640;53.116;6.878;2024-02-26T04:17:39;21.47;;;13.00;;
15082;SDS011;7640;53.116;6.878;2024-02-26T04:20:12;18.70;;;11.83;;
15082;SDS011;7640;53.116;6.878;2024-02-26T04:22:43;21.60;;;11.57;;
15082;SDS011;7640;53.116;6.878;2024-02-26T04:25:12;17.03;;;10.90;;
15082;SDS011;7640;53.116;6.878;2024-02-26T04:27:41;18.93;;;11.07;;
15082;SDS011;7640;53.116;6.878;2024-02-26T04:30:11;17.43;;;10.90;;
15082;SDS011;7640;53.116;6.878;2024-02-26T04:32:40;18.20;;;10.87;;
15082;SDS011;7640;53.116;6.878;2024-02-26T04:35:09;17.20;;;10.13;;
15082;SDS011;7640;53.116;6.878;2024-02-26T04:37:38;18.67;;;11.17;;
15082;SDS011;7640;53.116;6.878;2024-02-26T04:40:07;18.63;;;10.70;;
15082;SDS011;7640;53.116;6.878;2024-02-26T04:42:37;17.33;;;10.53;;
15082;SDS011;7640;53.116;6.878;2024-02-26T04:45:06;20.00;;;10.27;;
15082;SDS011;7640;53.116;6.878;2024-02-26T04:47:37;20.83;;;11.53;;
15082;SDS011;7640;53.116;6.878;2024-02-26T04:50:06;18.67;;;10.70;;
15082;SDS011;7640;53.116;6.878;2024-02-26T04:52:36;19.53;;;10.70;;
15082;SDS011;7640;53.116;6.878;2024-02-26T04:55:05;17.27;;;9.80;;
15082;SDS011;7640;53.116;6.878;2024-02-26T04:57:35;18.53;;;10.53;;
15082;SDS011;7640;53.116;6.878;2024-02-26T05:00:03;16.83;;;9.23;;
15082;SDS011;7640;53.116;6.878;2024-02-26T05:02:33;14.17;;;9.03;;
15082;SDS011;7640;53.116;6.878;2024-02-26T05:05:06;17.50;;;10.00;;
15082;SDS011;7640;53.116;6.878;2024-02-26T05:07:39;16.80;;;9.13;;
15082;SDS011;7640;53.116;6.878;2024-02-26T05:10:09;15.30;;;8.30;;
15082;SDS011;7640;53.116;6.878;2024-02-26T05:12:38;14.40;;;8.77;;
15082;SDS011;7640;53.116;6.878;2024-02-26T05:15:09;15.63;;;8.90;;
15082;SDS011;7640;53.116;6.878;2024-02-26T05:17:42;13.50;;;8.40;;
15082;SDS011;7640;53.116;6.878;2024-02-26T05:20:12;15.73;;;9.17;;
15082;SDS011;7640;53.116;6.878;2024-02-26T05:22:43;15.37;;;8.30;;
15082;SDS011;7640;53.116;6.878;2024-02-26T05:25:12;16.70;;;9.03;;
15082;SDS011;7640;53.116;6.878;2024-02-26T05:27:43;15.00;;;8.67;;
15082;SDS011;7640;53.116;6.878;2024-02-26T05:30:12;16.17;;;8.67;;
15082;SDS011;7640;53.116;6.878;2024-02-26T05:32:42;14.70;;;8.13;;
15082;SDS011;7640;53.116;6.878;2024-02-26T05:35:10;12.63;;;7.47;;
15082;SDS011;7640;53.116;6.878;2024-02-26T05:37:41;13.70;;;7.70;;
15082;SDS011;7640;53.116;6.878;2024-02-26T05:40:13;12.27;;;7.50;;
15082;SDS011;7640;53.116;6.878;2024-02-26T05:42:42;12.40;;;8.17;;
15082;SDS011;7640;53.116;6.878;2024-02-26T05:45:11;11.63;;;7.90;;
15082;SDS011;7640;53.116;6.878;2024-02-26T05:47:40;13.30;;;7.30;;
15082;SDS011;7640;53.116;6.878;2024-02-26T05:50:10;12.70;;;7.07;;
15082;SDS011;7640;53.116;6.878;2024-02-26T05:52:42;11.07;;;7.40;;
15082;SDS011;7640;53.116;6.878;2024-02-26T05:55:14;10.90;;;7.50;;
15082;SDS011;7640;53.116;6.878;2024-02-26T05:57:43;13.47;;;7.37;;
15082;SDS011;7640;53.116;6.878;2024-02-26T06:00:11;10.07;;;6.77;;
15082;SDS011;7640;53.116;6.878;2024-02-26T06:02:41;13.10;;;7.50;;
15082;SDS011;7640;53.116;6.878;2024-02-26T06:05:10;11.80;;;7.03;;
15082;SDS011;7640;53.116;6.878;2024-02-26T06:07:40;11.00;;;6.80;;
15082;SDS011;7640;53.116;6.878;2024-02-26T06:10:09;11.73;;;7.93;;
15082;SDS011;7640;53.116;6.878;2024-02-26T06:12:41;10.13;;;7.20;;
15082;SDS011;7640;53.116;6.878;2024-02-26T06:15:10;11.13;;;7.13;;
15082;SDS011;7640;53.116;6.878;2024-02-26T06:17:39;11.37;;;6.83;;
15082;SDS011;7640;53.116;6.878;2024-02-26T06:20:08;11.60;;;7.77;;
15082;SDS011;7640;53.116;6.878;2024-02-26T06:22:41;11.73;;;7.20;;
15082;SDS011;7640;53.116;6.878;2024-02-26T06:25:09;12.47;;;8.17;;
15082;SDS011;7640;53.116;6.878;2024-02-26T06:27:38;11.20;;;7.93;;
15082;SDS011;7640;53.116;6.878;2024-02-26T06:30:07;13.60;;;7.80;;
15082;SDS011;7640;53.116;6.878;2024-02-26T06:32:37;10.67;;;7.43;;
15082;SDS011;7640;53.116;6.878;2024-02-26T06:35:07;11.37;;;6.83;;
15082;SDS011;7640;53.116;6.878;2024-02-26T06:37:38;11.23;;;7.23;;
15082;SDS011;7640;53.116;6.878;2024-02-26T06:40:08;11.43;;;7.70;;
15082;SDS011;7640;53.116;6.878;2024-02-26T06:42:37;10.47;;;8.07;;
15082;SDS011;7640;53.116;6.878;2024-02-26T06:45:06;10.10;;;7.73;;
15082;SDS011;7640;53.116;6.878;2024-02-26T06:47:35;12.17;;;8.23;;
15082;SDS011;7640;53.116;6.878;2024-02-26T06:50:05;11.67;;;7.77;;
15082;SDS011;7640;53.116;6.878;2024-02-26T06:52:34;11.60;;;8.23;;
15082;SDS011;7640;53.116;6.878;2024-02-26T06:55:04;11.23;;;8.03;;
15082;SDS011;7640;53.116;6.878;2024-02-26T06:57:35;12.53;;;8.50;;
15082;SDS011;7640;53.116;6.878;2024-02-26T07:00:04;11.80;;;7.50;;
15082;SDS011;7640;53.116;6.878;2024-02-26T07:02:34;12.73;;;8.07;;
15082;SDS011;7640;53.116;6.878;2024-02-26T07:05:05;10.67;;;8.00;;
15082;SDS011;7640;53.116;6.878;2024-02-26T07:07:35;11.90;;;8.50;;
15082;SDS011;7640;53.116;6.878;2024-02-26T07:10:06;11.33;;;8.33;;
15082;SDS011;7640;53.116;6.878;2024-02-26T07:12:35;11.70;;;8.70;;
15082;SDS011;7640;53.116;6.878;2024-02-26T07:15:04;11.77;;;8.27;;
15082;SDS011;7640;53.116;6.878;2024-02-26T07:17:35;13.93;;;8.90;;
15082;SDS011;7640;53.116;6.878;2024-02-26T07:20:03;11.33;;;8.00;;
15082;SDS011;7640;53.116;6.878;2024-02-26T07:22:36;11.40;;;8.30;;
15082;SDS011;7640;53.116;6.878;2024-02-26T07:25:06;10.93;;;8.03;;
15082;SDS011;7640;53.116;6.878;2024-02-26T07:27:35;10.63;;;8.07;;
15082;SDS011;7640;53.116;6.878;2024-02-26T07:30:04;13.40;;;8.37;;
15082;SDS011;7640;53.116;6.878;2024-02-26T07:32:34;11.97;;;8.33;;
15082;SDS011;7640;53.116;6.878;2024-02-26T07:35:03;12.07;;;8.70;;
15082;SDS011;7640;53.116;6.878;2024-02-26T07:37:32;11.97;;;8.47;;
15082;SDS011;7640;53.116;6.878;2024-02-26T07:40:01;11.87;;;8.67;;
15082;SDS011;7640;53.116;6.878;2024-02-26T07:42:31;11.67;;;8.23;;
15082;SDS011;7640;53.116;6.878;2024-02-26T07:44:59;11.97;;;8.17;;
15082;SDS011;7640;53.116;6.878;2024-02-26T07:47:28;12.70;;;9.13;;
15082;SDS011;7640;53.116;6.878;2024-02-26T07:49:58;11.53;;;8.73;;
15082;SDS011;7640;53.116;6.878;2024-02-26T07:52:26;12.53;;;8.23;;
15082;SDS011;7640;53.116;6.878;2024-02-26T07:54:54;13.13;;;8.73;;
15082;SDS011;7640;53.116;6.878;2024-02-26T07:57:23;10.80;;;8.30;;
15082;SDS011;7640;53.116;6.878;2024-02-26T07:59:54;11.70;;;8.93;;
15082;SDS011;7640;53.116;6.878;2024-02-26T08:02:22;14.83;;;8.60;;
15082;SDS011;7640;53.116;6.878;2024-02-26T08:04:51;12.03;;;9.07;;
15082;SDS011;7640;53.116;6.878;2024-02-26T08:07:19;12.50;;;8.47;;
15082;SDS011;7640;53.116;6.878;2024-02-26T08:09:49;12.27;;;8.97;;
15082;SDS011;7640;53.116;6.878;2024-02-26T08:12:18;11.50;;;8.50;;
15082;SDS011;7640;53.116;6.878;2024-02-26T08:14:51;11.23;;;8.23;;
15082;SDS011;7640;53.116;6.878;2024-02-26T08:17:21;11.50;;;8.23;;
15082;SDS011;7640;53.116;6.878;2024-02-26T08:19:49;12.13;;;7.93;;
15082;SDS011;7640;53.116;6.878;2024-02-26T08:22:18;10.87;;;8.50;;
15082;SDS011;7640;53.116;6.878;2024-02-26T08:24:47;11.30;;;8.70;;
15082;SDS011;7640;53.116;6.878;2024-02-26T08:27:15;10.63;;;8.30;;
15082;SDS011;7640;53.116;6.878;2024-02-26T08:29:45;11.30;;;8.30;;
15082;SDS011;7640;53.116;6.878;2024-02-26T08:32:14;11.97;;;8.37;;
15082;SDS011;7640;53.116;6.878;2024-02-26T08:34:45;11.57;;;8.23;;
15082;SDS011;7640;53.116;6.878;2024-02-26T08:37:14;11.20;;;8.33;;
15082;SDS011;7640;53.116;6.878;2024-02-26T08:39:42;11.10;;;7.80;;
15082;SDS011;7640;53.116;6.878;2024-02-26T08:42:12;11.03;;;8.37;;
15082;SDS011;7640;53.116;6.878;2024-02-26T08:44:41;10.17;;;8.07;;
15082;SDS011;7640;53.116;6.878;2024-02-26T08:47:09;11.10;;;7.97;;
15082;SDS011;7640;53.116;6.878;2024-02-26T08:49:42;12.43;;;8.37;;
15082;SDS011;7640;53.116;6.878;2024-02-26T08:52:13;10.87;;;7.70;;
15082;SDS011;7640;53.116;6.878;2024-02-26T08:54:42;11.20;;;7.97;;
15082;SDS011;7640;53.116;6.878;2024-02-26T08:57:11;10.80;;;8.03;;
15082;SDS011;7640;53.116;6.878;2024-02-26T08:59:39;10.97;;;8.63;;
15082;SDS011;7640;53.116;6.878;2024-02-26T09:02:08;13.50;;;8.77;;
15082;SDS011;7640;53.116;6.878;2024-02-26T09:04:37;11.67;;;8.30;;
15082;SDS011;7640;53.116;6.878;2024-02-26T09:07:06;9.50;;;7.63;;
15082;SDS011;7640;53.116;6.878;2024-02-26T09:09:37;9.37;;;7.33;;
15082;SDS011;7640;53.116;6.878;2024-02-26T09:12:05;10.87;;;8.10;;
15082;SDS011;7640;53.116;6.878;2024-02-26T09:14:34;11.67;;;7.90;;
15082;SDS011;7640;53.116;6.878;2024-02-26T09:17:03;9.83;;;7.67;;
15082;SDS011;7640;53.116;6.878;2024-02-26T09:19:32;10.03;;;7.43;;
15082;SDS011;7640;53.116;6.878;2024-02-26T09:22:01;9.37;;;6.80;;
15082;SDS011;7640;53.116;6.878;2024-02-26T09:24:29;9.73;;;8.20;;
15082;SDS011;7640;53.116;6.878;2024-02-26T09:27:00;10.07;;;7.40;;
15082;SDS011;7640;53.116;6.878;2024-02-26T09:29:35;9.73;;;7.20;;
15082;SDS011;7640;53.116;6.878;2024-02-26T09:32:03;10.13;;;7.27;;
15082;SDS011;7640;53.116;6.878;2024-02-26T09:34:32;9.10;;;7.03;;
15082;SDS011;7640;53.116;6.878;2024-02-26T09:37:01;9.13;;;6.73;;
15082;SDS011;7640;53.116;6.878;2024-02-26T09:39:41;10.17;;;7.03;;
15082;SDS011;7640;53.116;6.878;2024-02-26T09:42:11;9.10;;;6.70;;
15082;SDS011;7640;53.116;6.878;2024-02-26T09:44:41;11.07;;;7.13;;
15082;SDS011;7640;53.116;6.878;2024-02-26T09:47:12;10.50;;;6.83;;
15082;SDS011;7640;53.116;6.878;2024-02-26T09:49:47;9.60;;;7.37;;
15082;SDS011;7640;53.116;6.878;2024-02-26T09:52:17;9.30;;;6.93;;
15082;SDS011;7640;53.116;6.878;2024-02-26T09:54:47;10.50;;;7.10;;
15082;SDS011;7640;53.116;6.878;2024-02-26T09:57:17;8.53;;;6.53;;
15082;SDS011;7640;53.116;6.878;2024-02-26T09:59:51;8.43;;;6.53;;
15082;SDS011;7640;53.116;6.878;2024-02-26T10:02:24;9.67;;;6.73;;
15082;SDS011;7640;53.116;6.878;2024-02-26T10:04:53;8.53;;;6.27;;
15082;SDS011;7640;53.116;6.878;2024-02-26T10:07:24;7.60;;;6.40;;
15082;SDS011;7640;53.116;6.878;2024-02-26T10:09:52;8.73;;;6.20;;
15082;SDS011;7640;53.116;6.878;2024-02-26T10:12:22;9.03;;;5.80;;
15082;SDS011;7640;53.116;6.878;2024-02-26T10:14:52;6.70;;;5.67;;
15082;SDS011;7640;53.116;6.878;2024-02-26T10:17:21;7.27;;;5.70;;
15082;SDS011;7640;53.116;6.878;2024-02-26T10:19:50;7.27;;;5.63;;
15082;SDS011;7640;53.116;6.878;2024-02-26T10:22:23;6.63;;;5.50;;
15082;SDS011;7640;53.116;6.878;2024-02-26T10:24:53;6.93;;;5.43;;
15082;SDS011;7640;53.116;6.878;2024-02-26T10:27:23;6.70;;;5.43;;
15082;SDS011;7640;53.116;6.878;2024-02-26T10:29:52;5.97;;;5.10;;
15082;SDS011;7640;53.116;6.878;2024-02-26T10:32:20;7.40;;;5.03;;
15082;SDS011;7640;53.116;6.878;2024-02-26T10:34:50;6.17;;;4.90;;
15082;SDS011;7640;53.116;6.878;2024-02-26T10:37:23;6.53;;;5.03;;
15082;SDS011;7640;53.116;6.878;2024-02-26T10:39:56;5.97;;;4.97;;
15082;SDS011;7640;53.116;6.878;2024-02-26T10:42:26;5.47;;;4.87;;
15082;SDS011;7640;53.116;6.878;2024-02-26T10:44:55;6.67;;;5.23;;
15082;SDS011;7640;53.116;6.878;2024-02-26T10:47:25;6.47;;;4.90;;
15082;SDS011;7640;53.116;6.878;2024-02-26T10:49:54;6.17;;;4.90;;
15082;SDS011;7640;53.116;6.878;2024-02-26T10:52:23;6.00;;;4.87;;
15082;SDS011;7640;53.116;6.878;2024-02-26T10:54:55;7.37;;;4.87;;
15082;SDS011;7640;53.116;6.878;2024-02-26T10:57:31;6.17;;;4.93;;
15082;SDS011;7640;53.116;6.878;2024-02-26T11:00:06;5.57;;;4.80;;
15082;SDS011;7640;53.116;6.878;2024-02-26T11:02:40;6.33;;;4.53;;
15082;SDS011;7640;53.116;6.878;2024-02-26T11:05:10;7.03;;;4.63;;
15082;SDS011;7640;53.116;6.878;2024-02-26T11:07:40;6.07;;;4.47;;
15082;SDS011;7640;53.116;6.878;2024-02-26T11:10:11;5.73;;;4.33;;
15082;SDS011;7640;53.116;6.878;2024-02-26T11:12:41;5.97;;;4.47;;
15082;SDS011;7640;53.116;6.878;2024-02-26T11:15:10;6.03;;;4.70;;
15082;SDS011;7640;53.116;6.878;2024-02-26T11:17:40;6.47;;;4.63;;
15082;SDS011;7640;53.116;6.878;2024-02-26T11:20:11;6.00;;;4.60;;
15082;SDS011;7640;53.116;6.878;2024-02-26T11:22:40;4.90;;;4.40;;
15082;SDS011;7640;53.116;6.878;2024-02-26T11:25:09;6.23;;;4.27;;
15082;SDS011;7640;53.116;6.878;2024-02-26T11:27:41;5.20;;;4.37;;
15082;SDS011;7640;53.116;6.878;2024-02-26T11:30:15;5.23;;;4.43;;
15082;SDS011;7640;53.116;6.878;2024-02-26T11:32:46;6.17;;;4.70;;
15082;SDS011;7640;53.116;6.878;2024-02-26T11:35:15;5.17;;;4.47;;
15082;SDS011;7640;53.116;6.878;2024-02-26T11:37:51;5.90;;;4.53;;
15082;SDS011;7640;53.116;6.878;2024-02-26T11:40:23;7.47;;;4.80;;
15082;SDS011;7640;53.116;6.878;2024-02-26T11:42:54;5.70;;;4.73;;
15082;SDS011;7640;53.116;6.878;2024-02-26T11:48:21;6.27;;;4.90;;
15082;SDS011;7640;53.116;6.878;2024-02-26T11:50:52;6.60;;;5.03;;
15082;SDS011;7640;53.116;6.878;2024-02-26T11:53:23;6.23;;;4.80;;
15082;SDS011;7640;53.116;6.878;2024-02-26T11:56:13;6.43;;;5.00;;
15082;SDS011;7640;53.116;6.878;2024-02-26T11:59:00;5.00;;;4.13;;
15082;SDS011;7640;53.116;6.878;2024-02-26T12:01:41;6.47;;;4.90;;
15082;SDS011;7640;53.116;6.878;2024-02-26T12:04:12;6.20;;;4.60;;
15082;SDS011;7640;53.116;6.878;2024-02-26T12:06:44;6.47;;;4.70;;
15082;SDS011;7640;53.116;6.878;2024-02-26T12:09:31;6.43;;;5.10;;
15082;SDS011;7640;53.116;6.878;2024-02-26T12:12:05;6.73;;;5.27;;
15082;SDS011;7640;53.116;6.878;2024-02-26T12:14:40;7.23;;;5.43;;
15082;SDS011;7640;53.116;6.878;2024-02-26T12:17:19;6.80;;;5.47;;
15082;SDS011;7640;53.116;6.878;2024-02-26T12:19:49;7.20;;;5.53;;
15082;SDS011;7640;53.116;6.878;2024-02-26T12:22:20;6.93;;;5.80;;
15082;SDS011;7640;53.116;6.878;2024-02-26T12:24:48;8.47;;;6.30;;
15082;SDS011;7640;53.116;6.878;2024-02-26T12:27:27;8.03;;;5.77;;
15082;SDS011;7640;53.116;6.878;2024-02-26T12:29:57;9.03;;;6.67;;
15082;SDS011;7640;53.116;6.878;2024-02-26T12:32:26;8.10;;;6.47;;
15082;SDS011;7640;53.116;6.878;2024-02-26T12:34:55;8.27;;;6.33;;
15082;SDS011;7640;53.116;6.878;2024-02-26T12:37:25;9.50;;;6.40;;
15082;SDS011;7640;53.116;6.878;2024-02-26T12:39:53;8.27;;;6.23;;
15082;SDS011;7640;53.116;6.878;2024-02-26T12:42:22;7.73;;;6.20;;
15082;SDS011;7640;53.116;6.878;2024-02-26T12:44:51;7.97;;;6.40;;
15082;SDS011;7640;53.116;6.878;2024-02-26T12:47:22;8.47;;;6.27;;
15082;SDS011;7640;53.116;6.878;2024-02-26T12:49:50;10.40;;;6.53;;
15082;SDS011;7640;53.116;6.878;2024-02-26T12:52:19;8.17;;;6.30;;
15082;SDS011;7640;53.116;6.878;2024-02-26T12:54:48;8.80;;;6.47;;
15082;SDS011;7640;53.116;6.878;2024-02-26T12:57:17;9.53;;;7.00;;
15082;SDS011;7640;53.116;6.878;2024-02-26T12:59:46;8.63;;;6.80;;
15082;SDS011;7640;53.116;6.878;2024-02-26T13:02:15;7.70;;;6.27;;
15082;SDS011;7640;53.116;6.878;2024-02-26T13:04:45;8.53;;;6.60;;
15082;SDS011;7640;53.116;6.878;2024-02-26T13:07:14;8.43;;;6.37;;
15082;SDS011;7640;53.116;6.878;2024-02-26T13:09:42;8.10;;;6.60;;
15082;SDS011;7640;53.116;6.878;2024-02-26T13:12:11;7.30;;;6.13;;
15082;SDS011;7640;53.116;6.878;2024-02-26T13:14:41;8.23;;;6.70;;
15082;SDS011;7640;53.116;6.878;2024-02-26T13:17:10;9.23;;;7.03;;
15082;SDS011;7640;53.116;6.878;2024-02-26T13:19:49;9.30;;;6.90;;
15082;SDS011;7640;53.116;6.878;2024-02-26T13:22:20;9.67;;;6.83;;
15082;SDS011;7640;53.116;6.878;2024-02-26T13:24:53;11.70;;;7.87;;
15082;SDS011;7640;53.116;6.878;2024-02-26T13:27:23;10.17;;;7.17;;
15082;SDS011;7640;53.116;6.878;2024-02-26T13:30:01;10.83;;;7.43;;
15082;SDS011;7640;53.116;6.878;2024-02-26T13:32:37;11.67;;;8.07;;
15082;SDS011;7640;53.116;6.878;2024-02-26T13:35:10;11.70;;;7.83;;
15082;SDS011;7640;53.116;6.878;2024-02-26T13:37:40;12.77;;;8.30;;
15082;SDS011;7640;53.116;6.878;2024-02-26T13:40:09;11.10;;;7.87;;
15082;SDS011;7640;53.116;6.878;2024-02-26T13:42:39;13.13;;;8.33;;
15082;SDS011;7640;53.116;6.878;2024-02-26T13:45:08;12.47;;;8.23;;
15082;SDS011;7640;53.116;6.878;2024-02-26T13:47:37;13.30;;;8.67;;
15082;SDS011;7640;53.116;6.878;2024-02-26T13:50:07;12.77;;;9.00;;
15082;SDS011;7640;53.116;6.878;2024-02-26T13:52:37;13.90;;;8.97;;
15082;SDS011;7640;53.116;6.878;2024-02-26T13:55:07;12.80;;;9.10;;
15082;SDS011;7640;53.116;6.878;2024-02-26T13:57:35;13.80;;;9.33;;
15082;SDS011;7640;53.116;6.878;2024-02-26T14:00:05;14.50;;;9.33;;
15082;SDS011;7640;53.116;6.878;2024-02-26T14:02:36;14.37;;;9.87;;
15082;SDS011;7640;53.116;6.878;2024-02-26T14:05:05;13.77;;;8.97;;
15082;SDS011;7640;53.116;6.878;2024-02-26T14:07:36;12.73;;;9.17;;
15082;SDS011;7640;53.116;6.878;2024-02-26T14:10:06;14.87;;;10.07;;
15082;SDS011;7640;53.116;6.878;2024-02-26T14:12:36;15.17;;;9.40;;
15082;SDS011;7640;53.116;6.878;2024-02-26T14:15:06;14.13;;;9.60;;
15082;SDS011;7640;53.116;6.878;2024-02-26T14:17:38;15.30;;;10.00;;
15082;SDS011;7640;53.116;6.878;2024-02-26T14:20:07;16.10;;;10.27;;
15082;SDS011;7640;53.116;6.878;2024-02-26T14:22:38;14.50;;;9.33;;
15082;SDS011;7640;53.116;6.878;2024-02-26T14:25:07;14.20;;;9.37;;
15082;SDS011;7640;53.116;6.878;2024-02-26T14:27:36;14.23;;;9.73;;
15082;SDS011;7640;53.116;6.878;2024-02-26T14:30:11;14.73;;;9.23;;
15082;SDS011;7640;53.116;6.878;2024-02-26T14:32:40;13.53;;;9.20;;
15082;SDS011;7640;53.116;6.878;2024-02-26T14:35:10;13.13;;;9.00;;
15082;SDS011;7640;53.116;6.878;2024-02-26T14:37:44;13.27;;;8.83;;
15082;SDS011;7640;53.116;6.878;2024-02-26T14:40:19;12.47;;;8.67;;
15082;SDS011;7640;53.116;6.878;2024-02-26T14:42:48;12.43;;;8.63;;
15082;SDS011;7640;53.116;6.878;2024-02-26T14:45:17;12.30;;;8.83;;
15082;SDS011;7640;53.116;6.878;2024-02-26T14:47:45;16.73;;;10.27;;
15082;SDS011;7640;53.116;6.878;2024-02-26T14:50:14;13.00;;;8.70;;
15082;SDS011;7640;53.116;6.878;2024-02-26T14:52:45;12.93;;;8.73;;
15082;SDS011;7640;53.116;6.878;2024-02-26T14:55:14;13.20;;;9.03;;
15082;SDS011;7640;53.116;6.878;2024-02-26T14:57:42;15.00;;;9.47;;
15082;SDS011;7640;53.116;6.878;2024-02-26T15:00:11;14.37;;;8.87;;
15082;SDS011;7640;53.116;6.878;2024-02-26T15:02:43;13.83;;;8.50;;
15082;SDS011;7640;53.116;6.878;2024-02-26T15:05:12;12.67;;;8.43;;